JST739 YMML-YMLT
Flight info
| Callsign | JST739 |
|---|---|
| Flight time | 0h 51m |
| Altitude | 33000 |
| Route | ML H169 IRSOM W105 LT |
| Aircraft | A20N/M-SDE2E3FGHIRWXY/LB1 |
Departure
| Time | 2026-04-16 07:25 |
|---|---|
| Airport | Melbourne Airport (YMML) |
Arrival
| Time | 2026-04-16 08:16 |
|---|---|
| Airport | Launceston Airport (YMLT) |
| Time | Latitude | Longitude | Altitude | Speed | Heading |
|---|---|---|---|---|---|
| 2026-04-16 07:08 | -37.67653 | 144.84710 | 375 ft | 0 kts | 351° |
| 2026-04-16 07:14 | -37.67663 | 144.84712 | 374 ft | 2 kts | 344° |
| 2026-04-16 07:14 | -37.67676 | 144.84723 | 374 ft | 2 kts | 269° |
| 2026-04-16 07:14 | -37.67676 | 144.84736 | 374 ft | 1 kts | 263° |
| 2026-04-16 07:14 | -37.67675 | 144.84737 | 374 ft | 0 kts | 263° |
| 2026-04-16 07:21 | -37.67686 | 144.84700 | 373 ft | 8 kts | 225° |
| 2026-04-16 07:21 | -37.67757 | 144.84632 | 372 ft | 17 kts | 218° |
| 2026-04-16 07:22 | -37.67824 | 144.84522 | 364 ft | 16 kts | 252° |
| 2026-04-16 07:22 | -37.67843 | 144.84367 | 366 ft | 20 kts | 264° |
| 2026-04-16 07:22 | -37.67862 | 144.84204 | 361 ft | 19 kts | 261° |
| 2026-04-16 07:22 | -37.67874 | 144.84106 | 360 ft | 0 kts | 262° |
| 2026-04-16 07:23 | -37.67874 | 144.84104 | 357 ft | 2 kts | 262° |
| 2026-04-16 07:24 | -37.67879 | 144.84062 | 359 ft | 8 kts | 262° |
| 2026-04-16 07:24 | -37.67881 | 144.83983 | 355 ft | 8 kts | 290° |
| 2026-04-16 07:24 | -37.67809 | 144.83954 | 362 ft | 33 kts | 352° |
| 2026-04-16 07:24 | -37.67293 | 144.83859 | 375 ft | 112 kts | 351° |
| 2026-04-16 07:25 | -37.66332 | 144.83682 | 466 ft | 164 kts | 349° |
| 2026-04-16 07:25 | -37.65163 | 144.83497 | 1169 ft | 172 kts | 349° |
| 2026-04-16 07:25 | -37.63958 | 144.83380 | 1969 ft | 177 kts | 348° |
| 2026-04-16 07:25 | -37.62763 | 144.83075 | 2811 ft | 177 kts | 328° |
| 2026-04-16 07:26 | -37.61897 | 144.81988 | 3419 ft | 185 kts | 293° |
| 2026-04-16 07:26 | -37.61748 | 144.80286 | 3889 ft | 213 kts | 259° |
| 2026-04-16 07:26 | -37.62503 | 144.78561 | 4496 ft | 243 kts | 229° |
| 2026-04-16 07:26 | -37.64011 | 144.77388 | 4885 ft | 267 kts | 202° |
| 2026-04-16 07:27 | -37.65892 | 144.77191 | 4988 ft | 281 kts | 175° |
| 2026-04-16 07:27 | -37.67732 | 144.78119 | 5052 ft | 295 kts | 147° |
| 2026-04-16 07:27 | -37.69253 | 144.79875 | 5561 ft | 298 kts | 139° |
| 2026-04-16 07:27 | -37.70790 | 144.81574 | 6555 ft | 296 kts | 146° |
| 2026-04-16 07:28 | -37.72508 | 144.83012 | 7529 ft | 298 kts | 155° |
| 2026-04-16 07:28 | -37.74371 | 144.84199 | 8435 ft | 303 kts | 162° |
| 2026-04-16 07:28 | -37.76329 | 144.85234 | 9391 ft | 306 kts | 166° |
| 2026-04-16 07:28 | -37.78347 | 144.86209 | 10241 ft | 315 kts | 167° |
| 2026-04-16 07:29 | -37.80469 | 144.87203 | 10666 ft | 337 kts | 167° |
| 2026-04-16 07:29 | -37.82745 | 144.88272 | 11049 ft | 358 kts | 166° |
| 2026-04-16 07:29 | -37.85105 | 144.89402 | 11810 ft | 365 kts | 166° |
| 2026-04-16 07:29 | -37.87488 | 144.90557 | 12696 ft | 369 kts | 166° |
| 2026-04-16 07:30 | -37.89860 | 144.91707 | 13542 ft | 373 kts | 166° |
| 2026-04-16 07:30 | -37.92304 | 144.92889 | 14294 ft | 378 kts | 166° |
| 2026-04-16 07:30 | -37.94768 | 144.94080 | 15059 ft | 381 kts | 166° |
| 2026-04-16 07:30 | -37.97260 | 144.95284 | 15824 ft | 385 kts | 166° |
| 2026-04-16 07:31 | -37.99785 | 144.96504 | 16514 ft | 391 kts | 166° |
| 2026-04-16 07:31 | -38.02334 | 144.97737 | 17257 ft | 394 kts | 167° |
| 2026-04-16 07:31 | -38.04905 | 144.98981 | 17980 ft | 398 kts | 167° |
| 2026-04-16 07:31 | -38.07506 | 145.00241 | 18624 ft | 402 kts | 167° |
| 2026-04-16 07:32 | -38.10136 | 145.01515 | 19202 ft | 408 kts | 167° |
| 2026-04-16 07:32 | -38.12789 | 145.02802 | 19827 ft | 411 kts | 167° |
| 2026-04-16 07:32 | -38.15446 | 145.04092 | 20421 ft | 415 kts | 167° |
| 2026-04-16 07:32 | -38.18151 | 145.05407 | 21016 ft | 419 kts | 166° |
| 2026-04-16 07:33 | -38.20890 | 145.06739 | 21635 ft | 423 kts | 167° |
| 2026-04-16 07:33 | -38.23665 | 145.08089 | 22101 ft | 430 kts | 167° |
| 2026-04-16 07:33 | -38.26479 | 145.09460 | 22703 ft | 434 kts | 167° |
| 2026-04-16 07:33 | -38.29305 | 145.10838 | 23254 ft | 438 kts | 167° |
| 2026-04-16 07:34 | -38.32171 | 145.12238 | 23787 ft | 442 kts | 167° |
| 2026-04-16 07:34 | -38.35051 | 145.13648 | 24271 ft | 445 kts | 167° |
| 2026-04-16 07:34 | -38.37949 | 145.15068 | 24740 ft | 449 kts | 167° |
| 2026-04-16 07:34 | -38.40873 | 145.16500 | 25200 ft | 452 kts | 167° |
| 2026-04-16 07:35 | -38.43781 | 145.17926 | 25667 ft | 455 kts | 167° |
| 2026-04-16 07:35 | -38.46754 | 145.19384 | 26036 ft | 461 kts | 167° |
| 2026-04-16 07:35 | -38.49754 | 145.20857 | 26488 ft | 463 kts | 167° |
| 2026-04-16 07:35 | -38.52769 | 145.22313 | 26935 ft | 464 kts | 169° |
| 2026-04-16 07:36 | -38.55832 | 145.23673 | 27337 ft | 466 kts | 170° |
| 2026-04-16 07:36 | -38.58917 | 145.24998 | 27737 ft | 469 kts | 171° |
| 2026-04-16 07:36 | -38.62020 | 145.26333 | 28134 ft | 472 kts | 170° |
| 2026-04-16 07:36 | -38.65092 | 145.27666 | 28520 ft | 476 kts | 170° |
| 2026-04-16 07:37 | -38.68236 | 145.29042 | 28868 ft | 480 kts | 170° |
| 2026-04-16 07:37 | -38.71455 | 145.30458 | 29211 ft | 483 kts | 170° |
| 2026-04-16 07:37 | -38.74645 | 145.31868 | 29574 ft | 486 kts | 170° |
| 2026-04-16 07:37 | -38.77806 | 145.33266 | 29917 ft | 488 kts | 170° |
| 2026-04-16 07:38 | -38.81022 | 145.34690 | 30231 ft | 491 kts | 170° |
| 2026-04-16 07:38 | -38.84258 | 145.36124 | 30557 ft | 493 kts | 170° |
| 2026-04-16 07:38 | -38.87509 | 145.37566 | 30857 ft | 495 kts | 170° |
| 2026-04-16 07:38 | -38.90774 | 145.39015 | 31173 ft | 498 kts | 171° |
| 2026-04-16 07:39 | -38.94047 | 145.40469 | 31547 ft | 498 kts | 171° |
| 2026-04-16 07:39 | -38.97317 | 145.41926 | 31968 ft | 497 kts | 171° |
| 2026-04-16 07:39 | -39.00582 | 145.43381 | 32383 ft | 496 kts | 171° |
| 2026-04-16 07:39 | -39.03850 | 145.44838 | 32756 ft | 496 kts | 171° |
| 2026-04-16 07:40 | -39.07056 | 145.46269 | 32897 ft | 494 kts | 171° |
| 2026-04-16 07:40 | -39.13549 | 145.49168 | 32909 ft | 495 kts | 171° |
| 2026-04-16 07:41 | -39.20123 | 145.52097 | 32901 ft | 508 kts | 171° |
| 2026-04-16 07:41 | -39.26865 | 145.55117 | 32901 ft | 514 kts | 171° |
| 2026-04-16 07:42 | -39.33574 | 145.58142 | 32891 ft | 514 kts | 171° |
| 2026-04-16 07:42 | -39.40324 | 145.61180 | 32893 ft | 514 kts | 171° |
| 2026-04-16 07:43 | -39.47075 | 145.64222 | 32893 ft | 514 kts | 171° |
| 2026-04-16 07:43 | -39.53815 | 145.67269 | 32893 ft | 514 kts | 171° |
| 2026-04-16 07:44 | -39.60548 | 145.70319 | 32881 ft | 515 kts | 171° |
| 2026-04-16 07:44 | -39.67274 | 145.73373 | 32878 ft | 515 kts | 171° |
| 2026-04-16 07:45 | -39.74038 | 145.76451 | 32879 ft | 515 kts | 171° |
| 2026-04-16 07:45 | -39.80818 | 145.79542 | 32867 ft | 517 kts | 171° |
| 2026-04-16 07:46 | -39.87596 | 145.82639 | 32864 ft | 517 kts | 171° |
| 2026-04-16 07:46 | -39.94330 | 145.85722 | 32859 ft | 517 kts | 171° |
| 2026-04-16 07:47 | -40.01119 | 145.88836 | 32885 ft | 518 kts | 171° |
| 2026-04-16 07:47 | -40.07911 | 145.91980 | 32848 ft | 518 kts | 171° |
| 2026-04-16 07:48 | -40.14706 | 145.95136 | 32848 ft | 518 kts | 171° |
| 2026-04-16 07:48 | -40.21451 | 145.98273 | 32844 ft | 518 kts | 171° |
| 2026-04-16 07:49 | -40.28254 | 146.01441 | 32837 ft | 519 kts | 171° |
| 2026-04-16 07:49 | -40.35055 | 146.04616 | 32836 ft | 519 kts | 171° |
| 2026-04-16 07:50 | -40.41862 | 146.07801 | 32828 ft | 519 kts | 171° |
| 2026-04-16 07:50 | -40.48668 | 146.10991 | 32831 ft | 520 kts | 171° |
| 2026-04-16 07:50 | -40.51943 | 146.12531 | 33160 ft | 518 kts | 171° |
| 2026-04-16 07:51 | -40.55421 | 146.14166 | 33379 ft | 519 kts | 171° |
| 2026-04-16 07:51 | -40.58838 | 146.15774 | 33230 ft | 517 kts | 171° |
| 2026-04-16 07:51 | -40.62235 | 146.17376 | 32714 ft | 514 kts | 171° |
| 2026-04-16 07:51 | -40.65519 | 146.18935 | 32478 ft | 502 kts | 171° |
| 2026-04-16 07:52 | -40.68769 | 146.20478 | 32220 ft | 493 kts | 171° |
| 2026-04-16 07:52 | -40.72024 | 146.22013 | 31742 ft | 493 kts | 171° |
| 2026-04-16 07:52 | -40.75239 | 146.23533 | 31288 ft | 485 kts | 171° |
| 2026-04-16 07:52 | -40.78389 | 146.25026 | 30635 ft | 479 kts | 171° |
| 2026-04-16 07:53 | -40.81507 | 146.26503 | 29931 ft | 474 kts | 171° |
| 2026-04-16 07:53 | -40.84554 | 146.27948 | 29154 ft | 468 kts | 171° |
| 2026-04-16 07:53 | -40.87595 | 146.29392 | 28423 ft | 462 kts | 171° |
| 2026-04-16 07:53 | -40.90605 | 146.30821 | 27870 ft | 458 kts | 171° |
| 2026-04-16 07:54 | -40.93588 | 146.32239 | 27340 ft | 454 kts | 171° |
| 2026-04-16 07:54 | -40.96529 | 146.33641 | 26995 ft | 445 kts | 171° |
| 2026-04-16 07:54 | -40.99420 | 146.35021 | 26276 ft | 440 kts | 171° |
| 2026-04-16 07:54 | -41.02264 | 146.36381 | 25814 ft | 426 kts | 171° |
| 2026-04-16 07:55 | -41.04990 | 146.37696 | 25543 ft | 409 kts | 172° |
| 2026-04-16 07:55 | -41.07639 | 146.38966 | 24954 ft | 402 kts | 172° |
| 2026-04-16 07:55 | -41.10205 | 146.40185 | 24329 ft | 398 kts | 172° |
| 2026-04-16 07:55 | -41.12811 | 146.41423 | 23708 ft | 394 kts | 172° |
| 2026-04-16 07:56 | -41.15360 | 146.42771 | 23015 ft | 402 kts | 160° |
| 2026-04-16 07:56 | -41.17631 | 146.45036 | 22272 ft | 417 kts | 140° |
| 2026-04-16 07:56 | -41.18834 | 146.47037 | 21812 ft | 421 kts | 129° |
| 2026-04-16 07:56 | -41.20619 | 146.50674 | 21083 ft | 418 kts | 127° |
| 2026-04-16 07:57 | -41.22158 | 146.53918 | 20460 ft | 413 kts | 127° |
| 2026-04-16 07:57 | -41.23598 | 146.57146 | 19857 ft | 411 kts | 120° |
| 2026-04-16 07:57 | -41.24766 | 146.60607 | 19269 ft | 409 kts | 114° |
| 2026-04-16 07:57 | -41.25830 | 146.64106 | 18695 ft | 406 kts | 116° |
| 2026-04-16 07:58 | -41.27242 | 146.67273 | 18126 ft | 393 kts | 135° |
| 2026-04-16 07:58 | -41.29012 | 146.70000 | 17480 ft | 388 kts | 138° |
| 2026-04-16 07:58 | -41.30753 | 146.72724 | 16858 ft | 386 kts | 134° |
| 2026-04-16 07:58 | -41.32376 | 146.75560 | 16224 ft | 385 kts | 131° |
| 2026-04-16 07:59 | -41.33898 | 146.78464 | 15620 ft | 383 kts | 129° |
| 2026-04-16 07:59 | -41.35362 | 146.81425 | 14994 ft | 379 kts | 128° |
| 2026-04-16 07:59 | -41.36782 | 146.84357 | 14414 ft | 374 kts | 127° |
| 2026-04-16 07:59 | -41.38172 | 146.87256 | 13838 ft | 370 kts | 127° |
| 2026-04-16 08:00 | -41.39553 | 146.90141 | 13215 ft | 367 kts | 126° |
| 2026-04-16 08:00 | -41.40906 | 146.92988 | 12592 ft | 362 kts | 127° |
| 2026-04-16 08:00 | -41.42253 | 146.95808 | 11970 ft | 359 kts | 127° |
| 2026-04-16 08:00 | -41.43586 | 146.98535 | 11363 ft | 353 kts | 133° |
| 2026-04-16 08:01 | -41.45342 | 147.00683 | 10767 ft | 334 kts | 157° |
| 2026-04-16 08:01 | -41.47439 | 147.01713 | 10177 ft | 311 kts | 182° |
| 2026-04-16 08:01 | -41.49494 | 147.01525 | 9599 ft | 287 kts | 207° |
| 2026-04-16 08:01 | -41.51152 | 147.00252 | 8980 ft | 266 kts | 233° |
| 2026-04-16 08:02 | -41.52048 | 146.98287 | 8610 ft | 239 kts | 258° |
| 2026-04-16 08:02 | -41.51442 | 146.94292 | 7968 ft | 239 kts | 295° |
| 2026-04-16 08:02 | -41.50606 | 146.92419 | 7714 ft | 237 kts | 298° |
| 2026-04-16 08:03 | -41.49744 | 146.90632 | 7476 ft | 236 kts | 298° |
| 2026-04-16 08:03 | -41.48845 | 146.88804 | 7225 ft | 237 kts | 298° |
| 2026-04-16 08:03 | -41.47938 | 146.86980 | 6984 ft | 233 kts | 298° |
| 2026-04-16 08:03 | -41.47042 | 146.85186 | 6749 ft | 234 kts | 298° |
| 2026-04-16 08:04 | -41.46134 | 146.83389 | 6508 ft | 233 kts | 300° |
| 2026-04-16 08:04 | -41.45046 | 146.81775 | 6372 ft | 240 kts | 315° |
| 2026-04-16 08:04 | -41.43463 | 146.80882 | 6253 ft | 263 kts | 343° |
| 2026-04-16 08:04 | -41.41602 | 146.81098 | 6120 ft | 285 kts | 10° |
| 2026-04-16 08:05 | -41.39857 | 146.82506 | 6008 ft | 305 kts | 38° |
| 2026-04-16 08:05 | -41.38643 | 146.84873 | 5882 ft | 317 kts | 65° |
| 2026-04-16 08:05 | -41.38239 | 146.87754 | 5756 ft | 319 kts | 93° |
| 2026-04-16 08:05 | -41.38729 | 146.90599 | 5594 ft | 314 kts | 120° |
| 2026-04-16 08:06 | -41.40004 | 146.92884 | 5492 ft | 303 kts | 147° |
| 2026-04-16 08:06 | -41.41735 | 146.94334 | 5364 ft | 290 kts | 160° |
| 2026-04-16 08:06 | -41.43455 | 146.95762 | 5234 ft | 294 kts | 150° |
| 2026-04-16 08:06 | -41.44939 | 146.97620 | 5111 ft | 300 kts | 137° |
| 2026-04-16 08:07 | -41.46187 | 146.99874 | 4983 ft | 304 kts | 128° |
| 2026-04-16 08:07 | -41.47249 | 147.02316 | 4864 ft | 305 kts | 123° |
| 2026-04-16 08:07 | -41.48209 | 147.04832 | 4744 ft | 302 kts | 121° |
| 2026-04-16 08:07 | -41.49139 | 147.07333 | 4566 ft | 304 kts | 121° |
| 2026-04-16 08:08 | -41.50093 | 147.09880 | 4481 ft | 305 kts | 121° |
| 2026-04-16 08:08 | -41.51034 | 147.12394 | 4335 ft | 303 kts | 121° |
| 2026-04-16 08:08 | -41.51962 | 147.14850 | 4285 ft | 298 kts | 120° |
| 2026-04-16 08:08 | -41.52883 | 147.17291 | 4105 ft | 291 kts | 120° |
| 2026-04-16 08:09 | -41.53787 | 147.19684 | 4011 ft | 293 kts | 120° |
| 2026-04-16 08:09 | -41.54859 | 147.22009 | 4005 ft | 293 kts | 133° |
| 2026-04-16 08:09 | -41.56200 | 147.24040 | 4003 ft | 291 kts | 136° |
| 2026-04-16 08:09 | -41.57546 | 147.26050 | 4006 ft | 290 kts | 136° |
| 2026-04-16 08:10 | -41.58877 | 147.28056 | 4002 ft | 287 kts | 136° |
| 2026-04-16 08:10 | -41.60199 | 147.30054 | 3996 ft | 287 kts | 136° |
| 2026-04-16 08:10 | -41.61508 | 147.32033 | 3999 ft | 289 kts | 136° |
| 2026-04-16 08:10 | -41.62850 | 147.34060 | 4011 ft | 291 kts | 136° |
| 2026-04-16 08:11 | -41.64241 | 147.35997 | 4022 ft | 285 kts | 149° |
| 2026-04-16 08:11 | -41.65985 | 147.37109 | 3900 ft | 276 kts | 176° |
| 2026-04-16 08:11 | -41.67818 | 147.37035 | 3772 ft | 258 kts | 204° |
| 2026-04-16 08:11 | -41.69287 | 147.35858 | 3691 ft | 242 kts | 232° |
| 2026-04-16 08:12 | -41.70045 | 147.33981 | 3599 ft | 222 kts | 262° |
| 2026-04-16 08:12 | -41.69914 | 147.32034 | 3472 ft | 205 kts | 294° |
| 2026-04-16 08:12 | -41.69007 | 147.30639 | 3194 ft | 202 kts | 324° |
| 2026-04-16 08:12 | -41.67754 | 147.29898 | 3037 ft | 195 kts | 335° |
| 2026-04-16 08:13 | -41.66547 | 147.29363 | 2995 ft | 174 kts | 335° |
| 2026-04-16 08:13 | -41.65367 | 147.28802 | 2947 ft | 183 kts | 332° |
| 2026-04-16 08:13 | -41.64223 | 147.28137 | 2892 ft | 173 kts | 329° |
| 2026-04-16 08:13 | -41.63202 | 147.27483 | 2790 ft | 154 kts | 328° |
| 2026-04-16 08:14 | -41.62245 | 147.26939 | 2548 ft | 147 kts | 331° |
| 2026-04-16 08:14 | -41.61297 | 147.26465 | 2237 ft | 144 kts | 332° |
| 2026-04-16 08:14 | -41.60371 | 147.25962 | 1891 ft | 140 kts | 330° |
| 2026-04-16 08:14 | -41.59552 | 147.25426 | 1654 ft | 130 kts | 325° |
| 2026-04-16 08:15 | -41.58813 | 147.24734 | 1314 ft | 127 kts | 325° |
| 2026-04-16 08:15 | -41.58120 | 147.24173 | 1195 ft | 110 kts | 328° |
| 2026-04-16 08:15 | -41.57492 | 147.23673 | 1049 ft | 98 kts | 326° |
| 2026-04-16 08:15 | -41.56914 | 147.23159 | 910 ft | 105 kts | 328° |
| 2026-04-16 08:16 | -41.56290 | 147.22628 | 791 ft | 107 kts | 328° |
| 2026-04-16 08:16 | -41.55662 | 147.22086 | 673 ft | 106 kts | 328° |
| 2026-04-16 08:16 | -41.55059 | 147.21565 | 568 ft | 101 kts | 328° |
| 2026-04-16 08:16 | -41.54604 | 147.21183 | 569 ft | 39 kts | 327° |
| 2026-04-16 08:17 | -41.54472 | 147.21070 | 565 ft | 28 kts | 327° |
| 2026-04-16 08:17 | -41.54304 | 147.20924 | 570 ft | 24 kts | 310° |
| 2026-04-16 08:17 | -41.54320 | 147.20766 | 565 ft | 16 kts | 287° |
| 2026-04-16 08:17 | -41.54254 | 147.20672 | 567 ft | 11 kts | 320° |
| 2026-04-16 08:18 | -41.54209 | 147.20590 | 571 ft | 0 kts | 292° |
| 2026-04-16 08:19 | -41.54207 | 147.20582 | 570 ft | 0 kts | 291° |